Time;durP1;ratioP1;P1;durP2;ratioP2;P2;SDS_P1;SDS_P2;PMS_P1;PMS_P2;Temp;Humidity;BMP_temperature;BMP_pressure;BME280_temperature;BME280_humidity;BME280_pressure;Samples;Min_cycle;Max_cycle;Signal;HPM_P1;HPM_P2
2022/06/24 00:01:22;;;;;;;4.35;2.40;;;16.60;74.80;;;;;;4125915;28;20038;-85
2022/06/24 00:03:45;;;;;;;7.47;1.58;;;16.60;75.10;;;;;;4132319;28;20030;-82
2022/06/24 00:06:14;;;;;;;5.55;1.70;;;16.60;75.00;;;;;;4130551;28;20532;-84
2022/06/24 00:08:46;;;;;;;4.82;1.90;;;16.60;75.00;;;;;;4130027;28;20033;-83
2022/06/24 00:11:13;;;;;;;5.85;1.90;;;16.60;74.90;;;;;;4138167;28;20038;-83
2022/06/24 00:13:39;;;;;;;4.10;1.85;;;16.60;74.90;;;;;;4128423;28;20025;-85
2022/06/24 00:16:02;;;;;;;4.90;1.60;;;16.60;74.70;;;;;;4117179;28;20034;-85
2022/06/24 00:18:23;;;;;;;3.42;1.75;;;16.50;74.70;;;;;;4118096;28;20039;-85
2022/06/24 00:20:49;;;;;;;4.05;1.55;;;16.50;74.70;;;;;;4131098;28;20041;-82
2022/06/24 00:23:10;;;;;;;4.15;1.52;;;16.50;74.70;;;;;;4120348;28;20031;-82
2022/06/24 00:25:37;;;;;;;1.63;1.27;;;16.50;75.20;;;;;;4132270;28;20941;-85
2022/06/24 00:28:11;;;;;;;3.95;1.60;;;16.50;74.90;;;;;;4134618;28;20075;-84
2022/06/24 00:30:41;;;;;;;3.83;1.50;;;16.50;75.50;;;;;;4131198;28;20034;-85
2022/06/24 00:33:15;;;;;;;4.28;1.52;;;16.40;75.10;;;;;;4132461;28;20037;-86
2022/06/24 00:35:42;;;;;;;5.45;1.52;;;16.40;75.40;;;;;;4130323;28;20042;-84
2022/06/24 00:38:23;;;;;;;6.60;1.55;;;16.40;75.30;;;;;;4130943;28;20544;-82
2022/06/24 00:40:45;;;;;;;4.72;1.48;;;16.40;75.60;;;;;;4118520;28;20537;-85
2022/06/24 00:43:06;;;;;;;3.95;1.50;;;16.40;75.50;;;;;;4123019;28;20034;-85
2022/06/24 00:45:38;;;;;;;4.20;1.60;;;16.40;75.30;;;;;;4120994;28;20037;-82
2022/06/24 00:48:06;;;;;;;7.53;1.70;;;16.40;75.20;;;;;;4139934;28;20127;-85
2022/06/24 00:50:31;;;;;;;3.40;1.35;;;16.40;75.20;;;;;;4137444;28;20067;-85
2022/06/24 00:52:55;;;;;;;5.22;1.52;;;16.30;75.10;;;;;;4117762;28;20042;-84
2022/06/24 00:55:21;;;;;;;4.90;1.35;;;16.30;75.10;;;;;;4132833;28;20100;-84
2022/06/24 00:57:42;;;;;;;6.53;1.48;;;16.30;75.10;;;;;;4121594;28;20550;-83
2022/06/24 01:00:05;;;;;;;5.50;1.42;;;16.30;75.00;;;;;;4131633;28;20030;-84
2022/06/24 01:02:26;;;;;;;3.45;1.45;;;16.30;75.00;;;;;;4133985;28;20062;-85
2022/06/24 01:04:47;;;;;;;9.88;1.45;;;16.30;74.90;;;;;;4131471;28;20041;-84
2022/06/24 01:07:08;;;;;;;5.15;1.63;;;16.30;75.00;;;;;;4133949;28;20036;-85
2022/06/24 01:09:29;;;;;;;4.35;1.45;;;16.30;75.00;;;;;;4121175;28;20110;-84
2022/06/24 01:11:50;;;;;;;4.47;1.52;;;16.20;74.90;;;;;;4131169;28;20058;-84
2022/06/24 01:14:12;;;;;;;4.72;1.40;;;16.20;74.90;;;;;;4141420;28;20037;-84
2022/06/24 01:16:34;;;;;;;6.18;1.70;;;16.20;74.90;;;;;;4121401;28;20049;-85
2022/06/24 01:18:59;;;;;;;6.75;1.38;;;16.20;74.90;;;;;;4144894;28;20261;-83
2022/06/24 01:21:37;;;;;;;7.65;1.70;;;16.20;74.90;;;;;;4135302;28;20022;-85
2022/06/24 01:24:17;;;;;;;4.35;1.52;;;16.10;75.00;;;;;;4122721;28;20035;-82
2022/06/24 01:26:42;;;;;;;5.63;1.25;;;16.10;74.80;;;;;;4131794;28;20042;-82
2022/06/24 01:29:04;;;;;;;7.32;1.73;;;16.10;74.70;;;;;;4129784;28;20053;-84
2022/06/24 01:31:25;;;;;;;3.67;1.40;;;16.10;74.80;;;;;;4137053;28;20399;-84
2022/06/24 01:33:46;;;;;;;6.47;1.60;;;16.10;75.30;;;;;;4135240;28;20046;-84
2022/06/24 01:36:07;;;;;;;7.40;1.65;;;16.10;75.50;;;;;;4136102;28;20026;-83
2022/06/24 01:38:28;;;;;;;3.03;1.20;;;16.00;75.10;;;;;;4148186;28;20030;-84
2022/06/24 01:40:49;;;;;;;4.32;1.20;;;16.00;75.10;;;;;;4128855;28;20045;-84
2022/06/24 01:43:10;;;;;;;6.00;1.30;;;16.00;75.10;;;;;;4117216;28;21522;-84
2022/06/24 01:45:31;;;;;;;5.28;1.10;;;16.00;75.10;;;;;;4131684;28;20034;-84
2022/06/24 01:47:52;;;;;;;9.05;1.52;;;15.90;75.30;;;;;;4115851;28;20058;-84
2022/06/24 01:50:13;;;;;;;7.85;1.35;;;15.90;75.30;;;;;;4122581;28;20084;-83
2022/06/24 01:52:34;;;;;;;5.10;1.42;;;15.90;75.80;;;;;;4133918;28;20026;-84
2022/06/24 01:54:55;;;;;;;6.82;1.25;;;15.90;75.80;;;;;;4136979;28;20045;-82
2022/06/24 01:57:16;;;;;;;5.32;1.00;;;15.90;75.70;;;;;;4131352;28;20141;-84
2022/06/24 01:59:37;;;;;;;5.18;1.60;;;15.90;75.60;;;;;;4136924;28;20645;-83
2022/06/24 02:01:58;;;;;;;2.70;1.20;;;15.90;76.00;;;;;;4133326;28;20372;-84
2022/06/24 02:04:19;;;;;;;5.30;1.27;;;15.80;75.80;;;;;;4132954;28;20022;-82
2022/06/24 02:06:40;;;;;;;3.53;1.20;;;15.80;75.90;;;;;;4136590;28;20058;-84
2022/06/24 02:09:02;;;;;;;2.60;1.08;;;15.80;75.80;;;;;;4135142;28;20044;-84
2022/06/24 02:14:06;;;;;;;3.25;1.10;;;15.80;76.10;;;;;;4136689;28;20041;-84
2022/06/24 02:16:27;;;;;;;3.60;1.20;;;15.70;76.30;;;;;;4133650;28;20037;-84
2022/06/24 02:18:49;;;;;;;4.22;1.15;;;15.70;76.50;;;;;;4136008;28;20085;-84
2022/06/24 02:21:10;;;;;;;5.38;1.00;;;15.70;76.40;;;;;;4133126;28;20125;-83
2022/06/24 02:23:31;;;;;;;2.05;1.00;;;15.70;76.50;;;;;;4123977;28;20050;-84
2022/06/24 02:25:53;;;;;;;3.50;1.00;;;15.70;76.50;;;;;;4133126;28;20030;-84
2022/06/24 02:28:15;;;;;;;1.95;1.08;;;15.70;76.70;;;;;;4122388;28;20073;-83
2022/06/24 02:30:37;;;;;;;8.48;1.40;;;15.70;76.80;;;;;;4132187;28;20046;-83
2022/06/24 02:32:58;;;;;;;3.60;1.15;;;15.70;76.70;;;;;;4137562;28;20025;-84
2022/06/24 02:35:19;;;;;;;7.20;1.80;;;15.70;76.60;;;;;;4122196;28;20035;-83
2022/06/24 02:37:40;;;;;;;5.55;1.25;;;15.70;76.60;;;;;;4124284;28;20088;-84
2022/06/24 02:40:45;;;;;;;3.22;1.02;;;15.70;76.50;;;;;;4122581;28;20157;-84
2022/06/24 02:42:43;;;;;;;2.50;0.80;;;15.70;76.40;;;;;;4136234;28;20041;-84
2022/06/24 02:45:05;;;;;;;3.80;1.10;;;15.70;76.20;;;;;;4136876;28;20486;-84
2022/06/24 02:47:26;;;;;;;4.90;1.02;;;15.70;76.20;;;;;;4126581;28;20486;-84
2022/06/24 02:49:47;;;;;;;8.23;1.55;;;15.70;76.10;;;;;;4130991;28;20168;-82
2022/06/24 02:52:08;;;;;;;4.82;1.23;;;15.70;76.50;;;;;;4132431;28;20810;-84
2022/06/24 02:54:29;;;;;;;8.05;1.40;;;15.70;76.50;;;;;;4119135;28;20066;-82
2022/06/24 02:56:50;;;;;;;8.57;1.48;;;15.70;77.10;;;;;;4134813;28;20042;-84
2022/06/24 02:59:11;;;;;;;6.50;2.05;;;15.60;77.10;;;;;;4138635;28;20439;-83
2022/06/24 03:01:32;;;;;;;4.95;1.30;;;15.70;77.10;;;;;;4135166;28;20103;-82
2022/06/24 03:03:53;;;;;;;3.00;1.17;;;15.60;77.30;;;;;;4133491;28;20036;-84
2022/06/24 03:06:14;;;;;;;3.70;1.27;;;15.60;77.60;;;;;;4130118;28;20056;-80
2022/06/24 03:08:35;;;;;;;3.67;1.33;;;15.60;77.30;;;;;;4139059;28;20399;-83
2022/06/24 03:10:57;;;;;;;5.32;1.05;;;15.60;77.60;;;;;;4121729;28;20487;-82
2022/06/24 03:13:18;;;;;;;4.63;0.90;;;15.70;77.30;;;;;;4119310;28;20038;-84
2022/06/24 03:15:40;;;;;;;7.03;1.05;;;15.70;77.10;;;;;;4133762;28;20129;-83
2022/06/24 03:18:01;;;;;;;8.15;1.13;;;15.70;77.10;;;;;;4134786;28;20034;-83
2022/06/24 03:20:22;;;;;;;4.90;1.00;;;15.70;76.90;;;;;;4134880;28;20494;-84
2022/06/24 03:22:43;;;;;;;5.88;1.02;;;15.70;76.70;;;;;;4138715;28;20034;-84
2022/06/24 03:25:05;;;;;;;2.90;1.00;;;15.70;76.60;;;;;;4123209;28;20031;-85
2022/06/24 03:27:26;;;;;;;6.35;1.20;;;15.70;76.60;;;;;;4121131;28;20044;-85
2022/06/24 03:29:47;;;;;;;6.85;1.08;;;15.70;76.80;;;;;;4130598;28;20060;-81
2022/06/24 03:32:08;;;;;;;7.13;1.00;;;15.70;76.80;;;;;;4132782;28;20499;-84
2022/06/24 03:34:29;;;;;;;3.08;1.10;;;15.70;76.90;;;;;;4132856;28;20049;-82
2022/06/24 03:36:50;;;;;;;4.72;1.23;;;15.70;76.70;;;;;;4136126;28;20499;-84
2022/06/24 03:39:11;;;;;;;4.85;1.00;;;15.70;76.70;;;;;;4130484;28;20115;-81
2022/06/24 03:41:33;;;;;;;6.10;1.40;;;15.80;76.90;;;;;;4143938;28;20039;-84
2022/06/24 03:43:54;;;;;;;3.33;0.80;;;15.80;77.30;;;;;;4127184;28;20034;-84
2022/06/24 03:46:15;;;;;;;4.03;0.88;;;15.80;77.70;;;;;;4128929;28;20038;-83
2022/06/24 03:48:36;;;;;;;4.97;1.10;;;15.80;77.70;;;;;;4120897;28;20042;-83
2022/06/24 03:50:57;;;;;;;9.45;1.30;;;15.90;77.90;;;;;;4126300;28;20045;-83
2022/06/24 03:53:18;;;;;;;4.78;1.00;;;15.90;78.50;;;;;;4132416;28;20041;-82
2022/06/24 03:55:39;;;;;;;11.55;1.48;;;15.90;78.40;;;;;;4133390;28;20065;-84
2022/06/24 03:58:00;;;;;;;2.90;1.10;;;16.00;78.40;;;;;;4131601;28;20064;-85
2022/06/24 04:00:21;;;;;;;3.83;1.17;;;16.10;78.80;;;;;;4134664;28;20468;-84
2022/06/24 04:02:44;;;;;;;4.68;1.10;;;16.10;78.50;;;;;;4131589;28;20036;-84
2022/06/24 04:05:05;;;;;;;3.70;0.93;;;16.20;78.40;;;;;;4128415;28;20068;-82
2022/06/24 04:07:26;;;;;;;8.45;1.30;;;16.20;78.20;;;;;;4131345;28;20036;-83
2022/06/24 04:09:48;;;;;;;5.85;0.93;;;16.30;78.10;;;;;;4128516;28;20045;-81
2022/06/24 04:12:10;;;;;;;5.03;1.05;;;16.40;77.90;;;;;;4127305;28;20430;-83
2022/06/24 04:17:10;;;;;;;6.72;1.50;;;16.50;77.30;;;;;;4134288;28;20598;-81
2022/06/24 04:19:34;;;;;;;4.20;1.00;;;16.60;77.20;;;;;;4129706;28;20037;-84
2022/06/24 04:21:55;;;;;;;7.90;1.65;;;16.60;77.00;;;;;;4125469;28;20347;-82
2022/06/24 04:24:16;;;;;;;4.40;1.13;;;16.70;76.90;;;;;;4134399;28;20557;-81
2022/06/24 04:26:37;;;;;;;4.68;1.67;;;16.80;76.80;;;;;;4123918;28;20034;-83
2022/06/24 04:28:58;;;;;;;4.85;1.50;;;16.80;76.60;;;;;;4131985;28;20062;-84
2022/06/24 04:31:19;;;;;;;3.00;1.10;;;16.90;76.20;;;;;;4134446;28;20057;-82
2022/06/24 04:33:40;;;;;;;8.70;1.27;;;17.00;76.20;;;;;;4126368;28;21867;-82
2022/06/24 04:36:01;;;;;;;3.90;1.30;;;17.10;76.20;;;;;;4131324;28;20052;-84
2022/06/24 04:38:23;;;;;;;5.18;1.20;;;17.20;76.10;;;;;;4131676;28;20088;-84
2022/06/24 04:40:44;;;;;;;4.93;1.48;;;17.20;75.80;;;;;;4120284;28;20501;-82
2022/06/24 04:43:05;;;;;;;6.15;1.33;;;17.30;75.50;;;;;;4135180;28;20021;-81
2022/06/24 04:45:26;;;;;;;2.22;1.02;;;17.40;75.20;;;;;;4135541;28;20030;-82
2022/06/24 04:47:47;;;;;;;3.67;1.10;;;17.40;75.10;;;;;;4132023;28;20049;-84
2022/06/24 04:50:09;;;;;;;5.35;1.20;;;17.50;74.80;;;;;;4130362;28;20030;-84
2022/06/24 04:52:32;;;;;;;3.50;1.20;;;17.60;74.80;;;;;;4130828;28;20113;-84
2022/06/24 04:54:53;;;;;;;3.30;1.05;;;17.60;74.50;;;;;;4116615;28;20042;-83
2022/06/24 04:57:14;;;;;;;2.97;1.30;;;17.70;74.60;;;;;;4106686;28;20038;-86
2022/06/24 04:59:35;;;;;;;5.78;1.52;;;17.70;74.20;;;;;;4130527;28;20049;-83
2022/06/24 05:01:56;;;;;;;4.43;1.42;;;17.80;74.20;;;;;;4115682;28;20034;-82
2022/06/24 05:04:17;;;;;;;4.20;1.55;;;17.90;74.00;;;;;;4130092;28;20026;-84
2022/06/24 05:06:38;;;;;;;3.78;1.40;;;18.00;74.00;;;;;;4135636;28;20486;-85
2022/06/24 05:08:59;;;;;;;7.75;1.50;;;18.00;73.90;;;;;;4118136;28;20034;-82
2022/06/24 05:11:20;;;;;;;3.42;1.27;;;18.10;73.60;;;;;;4126816;28;20121;-82
2022/06/24 05:13:42;;;;;;;4.60;1.40;;;18.20;73.50;;;;;;4110714;28;20066;-84
2022/06/24 05:16:03;;;;;;;5.38;1.92;;;18.20;73.30;;;;;;4133056;28;20034;-84
2022/06/24 05:18:24;;;;;;;5.50;1.40;;;18.30;72.30;;;;;;4130899;28;20045;-84
2022/06/24 05:20:45;;;;;;;4.00;1.30;;;18.30;72.00;;;;;;4132790;28;20057;-83
2022/06/24 05:23:06;;;;;;;3.92;1.30;;;18.40;72.10;;;;;;4132524;28;20469;-85
2022/06/24 05:25:27;;;;;;;3.50;1.55;;;18.50;72.10;;;;;;4136405;28;20081;-84
2022/06/24 05:27:48;;;;;;;4.88;1.30;;;18.50;72.10;;;;;;4135692;28;20109;-84
2022/06/24 05:30:10;;;;;;;1.85;1.10;;;18.50;71.80;;;;;;4122741;28;20034;-83
2022/06/24 05:32:31;;;;;;;6.50;1.60;;;18.60;71.60;;;;;;4129522;28;20046;-85
2022/06/24 05:34:52;;;;;;;4.68;1.60;;;18.70;71.80;;;;;;4132601;28;20037;-86
2022/06/24 05:37:13;;;;;;;4.97;1.70;;;18.80;71.70;;;;;;4136168;28;20037;-83
2022/06/24 05:39:34;;;;;;;4.03;1.65;;;18.80;71.20;;;;;;4129674;28;20034;-85
2022/06/24 05:41:55;;;;;;;7.70;1.40;;;18.80;70.80;;;;;;4138093;28;20045;-81
2022/06/24 05:44:16;;;;;;;5.63;1.65;;;18.90;70.90;;;;;;4136434;28;20042;-86
2022/06/24 05:46:38;;;;;;;4.60;1.65;;;19.00;70.70;;;;;;4126656;28;20541;-85
2022/06/24 05:48:59;;;;;;;5.88;1.20;;;19.00;70.30;;;;;;4138459;28;20116;-84
2022/06/24 05:51:20;;;;;;;3.47;1.73;;;19.10;70.50;;;;;;4139108;28;20414;-88
2022/06/24 05:56:23;;;;;;;3.92;1.60;;;19.20;69.50;;;;;;4131431;28;20096;-85
2022/06/24 05:58:44;;;;;;;9.55;2.13;;;19.20;69.70;;;;;;4140874;28;20044;-87
2022/06/24 06:01:11;;;;;;;6.47;1.80;;;19.30;69.80;;;;;;4128435;28;20049;-88
2022/06/24 06:03:32;;;;;;;7.65;1.77;;;19.30;69.70;;;;;;4142247;28;20033;-89
2022/06/24 06:05:53;;;;;;;6.30;2.15;;;19.30;69.20;;;;;;4141283;28;20034;-87
2022/06/24 06:08:16;;;;;;;6.07;1.60;;;19.30;68.70;;;;;;4139884;28;20045;-89
2022/06/24 06:10:37;;;;;;;4.88;1.63;;;19.30;68.20;;;;;;4136954;28;20041;-88
2022/06/24 06:12:58;;;;;;;3.78;1.85;;;19.30;68.50;;;;;;4126455;28;20133;-86
2022/06/24 06:15:20;;;;;;;3.60;1.65;;;19.40;68.90;;;;;;4140061;28;20482;-86
2022/06/24 06:17:41;;;;;;;3.35;1.42;;;19.40;68.40;;;;;;4127533;28;20034;-88
2022/06/24 06:20:03;;;;;;;5.13;1.75;;;19.40;68.60;;;;;;4114428;28;20049;-91
2022/06/24 06:22:24;;;;;;;6.68;2.03;;;19.50;68.80;;;;;;4122954;28;20398;-89
2022/06/24 06:24:45;;;;;;;4.45;1.77;;;19.50;68.10;;;;;;4132824;28;20038;-90
2022/06/24 06:27:07;;;;;;;4.18;1.58;;;19.60;68.60;;;;;;4123677;28;20072;-87
2022/06/24 06:29:28;;;;;;;5.22;1.58;;;19.60;69.00;;;;;;4125259;28;20469;-87
2022/06/24 06:31:52;;;;;;;3.92;1.50;;;19.70;68.80;;;;;;4125048;28;20038;-89
2022/06/24 06:34:13;;;;;;;5.65;2.03;;;19.70;68.20;;;;;;4122834;28;20042;-88
2022/06/24 06:36:34;;;;;;;5.68;1.38;;;19.70;67.20;;;;;;4121209;28;20621;-89
2022/06/24 06:38:56;;;;;;;7.13;2.20;;;19.80;67.40;;;;;;4131875;28;20039;-89
2022/06/24 06:41:17;;;;;;;9.35;1.80;;;19.80;66.80;;;;;;4119808;28;20093;-86
2022/06/24 06:43:38;;;;;;;5.45;1.40;;;19.80;67.20;;;;;;4137613;28;20053;-90
2022/06/24 06:45:59;;;;;;;3.88;1.48;;;19.90;68.50;;;;;;4133061;28;20068;-86
2022/06/24 06:48:21;;;;;;;6.53;1.58;;;19.90;67.50;;;;;;4118977;28;20092;-89
2022/06/24 06:50:43;;;;;;;9.75;1.40;;;20.00;67.70;;;;;;4125415;28;20116;-85
2022/06/24 06:53:04;;;;;;;6.63;1.70;;;20.10;67.70;;;;;;4134012;28;20454;-87
2022/06/24 06:55:25;;;;;;;3.83;1.50;;;20.10;66.90;;;;;;4136302;28;20490;-89
2022/06/24 06:57:46;;;;;;;3.33;1.48;;;20.20;66.40;;;;;;4131839;28;20065;-88
2022/06/24 07:00:11;;;;;;;8.18;2.08;;;20.20;66.20;;;;;;4133822;28;20088;-87
2022/06/24 07:02:32;;;;;;;6.07;1.70;;;20.20;66.10;;;;;;4121369;28;20175;-85
2022/06/24 07:04:54;;;;;;;5.53;2.00;;;20.30;65.90;;;;;;4117095;28;20081;-84
2022/06/24 07:07:15;;;;;;;4.50;1.70;;;20.40;66.80;;;;;;4117571;28;20132;-83
2022/06/24 07:09:36;;;;;;;7.38;1.88;;;20.40;65.40;;;;;;4108783;28;20058;-83
2022/06/24 07:11:57;;;;;;;6.78;1.65;;;20.50;65.30;;;;;;4134821;28;20498;-83
2022/06/24 07:14:18;;;;;;;5.63;1.67;;;20.50;64.70;;;;;;4118801;28;20571;-81
2022/06/24 07:16:39;;;;;;;6.60;1.90;;;20.50;65.10;;;;;;4128670;28;20053;-84
2022/06/24 07:19:00;;;;;;;6.43;2.25;;;20.60;64.90;;;;;;4137258;28;20117;-82
2022/06/24 07:21:21;;;;;;;3.30;1.35;;;20.60;64.20;;;;;;4138838;28;20029;-89
2022/06/24 07:23:42;;;;;;;6.53;2.00;;;20.70;64.40;;;;;;4139130;28;20026;-90
2022/06/24 07:26:04;;;;;;;9.88;1.70;;;20.70;65.00;;;;;;4136708;28;20390;-87
2022/06/24 07:28:25;;;;;;;6.18;2.15;;;20.70;64.30;;;;;;4123601;28;20061;-91
2022/06/24 07:30:46;;;;;;;5.53;1.80;;;20.70;63.60;;;;;;4114816;28;20045;-88
2022/06/24 07:33:07;;;;;;;4.13;1.92;;;20.70;63.50;;;;;;4119374;28;20066;-87
2022/06/24 07:35:29;;;;;;;5.90;2.35;;;20.70;63.90;;;;;;4115896;28;20034;-87
2022/06/24 07:37:50;;;;;;;7.28;2.08;;;20.80;63.20;;;;;;4113890;28;20125;-89
2022/06/24 07:40:11;;;;;;;7.57;2.13;;;20.90;63.90;;;;;;4122716;28;20038;-87
2022/06/24 07:42:32;;;;;;;6.18;1.95;;;20.80;63.30;;;;;;4140537;28;20487;-87
2022/06/24 07:44:53;;;;;;;7.75;1.88;;;21.00;63.80;;;;;;4124906;28;20030;-88
2022/06/24 07:47:15;;;;;;;6.75;2.33;;;21.00;63.50;;;;;;4117892;28;20101;-88
2022/06/24 07:49:37;;;;;;;5.35;2.05;;;21.00;63.20;;;;;;4130209;28;20044;-88
2022/06/24 07:51:58;;;;;;;7.60;2.60;;;21.00;62.50;;;;;;4117829;28;20049;-88
2022/06/24 07:54:19;;;;;;;9.88;2.15;;;21.00;62.30;;;;;;4129742;28;20034;-88
2022/06/24 07:56:58;;;;;;;10.90;2.05;;;21.00;62.90;;;;;;4121400;28;20069;-88
2022/06/24 07:59:19;;;;;;;9.55;2.15;;;21.10;63.40;;;;;;4130011;28;20053;-87
2022/06/24 08:01:40;;;;;;;3.50;1.85;;;21.10;63.40;;;;;;4131811;28;20041;-87
2022/06/24 08:04:07;;;;;;;8.35;2.63;;;21.20;63.90;;;;;;4120890;28;20026;-87
2022/06/24 08:06:29;;;;;;;6.07;1.83;;;21.20;62.70;;;;;;4115459;28;20034;-85
2022/06/24 08:08:50;;;;;;;4.45;2.22;;;21.20;63.20;;;;;;4120691;28;20038;-89
2022/06/24 08:11:11;;;;;;;5.45;2.28;;;21.20;62.80;;;;;;4114140;28;20046;-90
2022/06/24 08:13:33;;;;;;;8.60;1.90;;;21.20;62.90;;;;;;4132518;28;20049;-88
2022/06/24 08:15:54;;;;;;;7.32;2.22;;;21.20;62.90;;;;;;4115340;28;20038;-87
2022/06/24 08:18:17;;;;;;;7.03;2.00;;;21.10;63.60;;;;;;4121167;28;20039;-87
2022/06/24 08:20:38;;;;;;;9.43;2.17;;;21.10;63.50;;;;;;4125408;28;21488;-87
2022/06/24 08:22:59;;;;;;;5.78;2.13;;;21.10;63.90;;;;;;4130591;28;20166;-87
2022/06/24 08:25:20;;;;;;;8.88;1.83;;;21.10;64.20;;;;;;4134623;28;20037;-88
2022/06/24 08:27:41;;;;;;;8.65;2.35;;;21.10;64.70;;;;;;4131549;28;20029;-87
2022/06/24 08:30:03;;;;;;;8.10;1.92;;;21.10;64.60;;;;;;4118825;28;20038;-86
2022/06/24 08:32:25;;;;;;;11.10;3.03;;;21.20;65.30;;;;;;4133084;28;20172;-92
2022/06/24 08:34:46;;;;;;;7.63;2.40;;;21.30;64.60;;;;;;4122428;28;20146;-87
2022/06/24 08:37:07;;;;;;;7.68;2.17;;;21.30;63.70;;;;;;4118127;28;20042;-88
2022/06/24 08:39:28;;;;;;;9.27;2.35;;;21.20;63.00;;;;;;4112313;28;20085;-88
2022/06/24 08:41:56;;;;;;;7.35;2.60;;;21.30;63.60;;;;;;4130127;28;20121;-87
2022/06/24 08:44:17;;;;;;;8.27;2.60;;;21.30;64.10;;;;;;4118476;28;20039;-90
2022/06/24 08:46:40;;;;;;;8.82;2.78;;;21.40;64.00;;;;;;4131471;28;20050;-87
2022/06/24 08:49:02;;;;;;;6.53;2.38;;;21.50;63.40;;;;;;4123233;28;20118;-89
2022/06/24 08:51:24;;;;;;;7.68;2.85;;;21.50;63.30;;;;;;4132119;28;20038;-87
2022/06/24 08:53:48;;;;;;;8.80;2.50;;;21.60;62.70;;;;;;4129113;28;20033;-92
2022/06/24 08:56:09;;;;;;;;;;;21.70;62.80;;;;;;4132029;28;20084;-87
2022/06/24 08:58:30;;;;;;;14.18;3.53;;;21.70;62.50;;;;;;4120062;28;19924;-89
2022/06/24 09:00:51;;;;;;;10.07;2.78;;;21.80;62.00;;;;;;4118180;28;20061;-87
2022/06/24 09:03:12;;;;;;;8.88;3.63;;;21.90;62.00;;;;;;4136755;28;20029;-88
2022/06/24 09:05:33;;;;;;;4.68;2.50;;;21.80;61.50;;;;;;4127007;28;20065;-87
2022/06/24 09:08:07;;;;;;;9.98;2.78;;;21.80;61.40;;;;;;4117666;28;20065;-87
2022/06/24 09:10:28;;;;;;;8.23;2.75;;;21.90;62.30;;;;;;4135031;28;20057;-86
2022/06/24 09:12:49;;;;;;;6.25;2.95;;;21.90;62.50;;;;;;4134099;28;20168;-86
2022/06/24 09:15:13;;;;;;;11.68;2.45;;;22.00;62.30;;;;;;4114824;28;20038;-87
2022/06/24 09:17:36;;;;;;;8.32;2.30;;;22.00;62.10;;;;;;4132688;28;20379;-88
2022/06/24 09:20:10;;;;;;;8.43;3.67;;;22.10;62.80;;;;;;4118743;28;20148;-89
2022/06/24 09:22:31;;;;;;;8.95;3.38;;;22.20;61.90;;;;;;4131549;28;20708;-90
2022/06/24 09:24:53;;;;;;;9.23;3.08;;;22.20;61.30;;;;;;4125515;28;20113;-89
2022/06/24 09:27:15;;;;;;;8.48;2.78;;;22.10;60.70;;;;;;4108078;28;20546;-87
2022/06/24 09:29:37;;;;;;;11.40;3.05;;;22.20;60.60;;;;;;4112010;28;20546;-88
2022/06/24 09:32:05;;;;;;;5.43;2.97;;;22.20;61.30;;;;;;4127321;28;20037;-87
2022/06/24 09:34:27;;;;;;;17.17;3.75;;;22.20;59.90;;;;;;4119313;28;20154;-88
2022/06/24 09:36:48;;;;;;;7.35;2.95;;;22.20;60.60;;;;;;4109911;28;20044;-92
2022/06/24 09:39:15;;;;;;;8.70;2.80;;;22.30;61.30;;;;;;4124057;28;20288;-85
2022/06/24 09:41:49;;;;;;;9.73;3.42;;;22.30;61.20;;;;;;4130226;28;20353;-90
2022/06/24 09:44:11;;;;;;;6.85;3.47;;;22.30;60.10;;;;;;4126811;28;21612;-86
2022/06/24 09:46:35;;;;;;;7.28;3.08;;;22.20;60.80;;;;;;4131350;28;21006;-87
2022/06/24 09:49:09;;;;;;;11.35;3.28;;;22.30;61.00;;;;;;4119303;28;20283;-90
2022/06/24 09:51:31;;;;;;;;;;;22.40;61.40;;;;;;4138057;28;20237;-88
2022/06/24 09:53:55;;;;;;;14.05;3.80;;;22.40;61.00;;;;;;4122633;28;19943;-90
2022/06/24 09:56:17;;;;;;;12.45;4.05;;;22.40;61.00;;;;;;4126294;28;20034;-86
2022/06/24 09:58:40;;;;;;;6.13;3.05;;;22.40;60.80;;;;;;4126751;28;20105;-87
2022/06/24 10:01:02;;;;;;;12.32;3.78;;;22.40;61.60;;;;;;4126630;28;20026;-87
2022/06/24 10:03:24;;;;;;;7.50;3.35;;;22.40;61.70;;;;;;4127325;28;20116;-88
2022/06/24 10:05:51;;;;;;;13.13;4.90;;;22.40;61.30;;;;;;4132607;28;20189;-88
2022/06/24 10:08:19;;;;;;;12.07;3.15;;;22.30;61.10;;;;;;4127534;28;20035;-88
2022/06/24 10:10:51;;;;;;;8.25;3.30;;;22.40;62.10;;;;;;4131411;28;20589;-88
2022/06/24 10:13:33;;;;;;;8.82;3.70;;;22.50;61.60;;;;;;4124315;28;20034;-87
2022/06/24 10:15:57;;;;;;;21.00;4.63;;;22.40;61.40;;;;;;4133469;28;20065;-88
2022/06/24 10:18:22;;;;;;;11.85;3.97;;;22.40;61.60;;;;;;4134183;28;20042;-88
2022/06/24 10:20:45;;;;;;;9.52;2.85;;;22.30;60.70;;;;;;4135484;28;20065;-86
2022/06/24 10:23:06;;;;;;;13.55;3.58;;;22.50;61.60;;;;;;4134934;28;20115;-86
2022/06/24 10:25:51;;;;;;;12.25;3.90;;;22.50;61.60;;;;;;4134705;28;20375;-87
2022/06/24 10:28:12;;;;;;;;;;;22.50;60.40;;;;;;4135775;28;20030;-91
2022/06/24 10:30:57;;;;;;;11.80;3.28;;;22.60;60.70;;;;;;4137121;28;19913;-87
2022/06/24 10:33:21;;;;;;;9.13;3.38;;;22.60;60.80;;;;;;4132649;28;20068;-88
2022/06/24 10:36:03;;;;;;;9.70;3.90;;;22.70;60.80;;;;;;4132907;28;20041;-86
2022/06/24 10:38:47;;;;;;;14.00;4.43;;;22.60;60.30;;;;;;4135765;28;20395;-89
2022/06/24 10:41:13;;;;;;;10.23;3.95;;;22.70;60.90;;;;;;4116531;28;20089;-87
2022/06/24 10:43:42;;;;;;;8.35;3.28;;;22.70;61.20;;;;;;4117246;28;20038;-90
2022/06/24 10:46:13;;;;;;;9.05;3.53;;;22.70;60.50;;;;;;4117343;28;20089;-88
2022/06/24 10:48:49;;;;;;;9.63;3.28;;;22.70;60.70;;;;;;4129751;28;20045;-89
2022/06/24 10:51:20;;;;;;;9.10;3.50;;;22.80;61.00;;;;;;4131393;28;20049;-87
2022/06/24 10:54:03;;;;;;;10.13;3.72;;;22.90;60.90;;;;;;4122830;28;21386;-88
2022/06/24 10:56:43;;;;;;;9.32;3.78;;;23.00;60.70;;;;;;4133492;28;20029;-91
2022/06/24 10:59:04;;;;;;;7.50;3.90;;;23.00;60.00;;;;;;4120952;28;20050;-85
2022/06/24 11:01:25;;;;;;;10.25;3.55;;;23.00;58.90;;;;;;4134945;28;20037;-89
2022/06/24 11:03:47;;;;;;;10.63;3.70;;;23.10;59.50;;;;;;4132464;28;20874;-87
2022/06/24 11:06:09;;;;;;;10.27;4.22;;;23.00;59.20;;;;;;4137236;28;20062;-86
2022/06/24 11:08:37;;;;;;;8.25;3.40;;;23.10;60.00;;;;;;4136047;28;20038;-87
2022/06/24 11:10:59;;;;;;;6.28;3.17;;;23.10;60.40;;;;;;4128954;28;20030;-92
2022/06/24 11:13:23;;;;;;;11.48;4.18;;;23.20;60.30;;;;;;4126058;28;20081;-90
2022/06/24 11:15:59;;;;;;;7.38;3.40;;;23.20;60.20;;;;;;4132510;28;21124;-88
2022/06/24 11:18:29;;;;;;;12.23;3.45;;;23.30;59.90;;;;;;4131041;28;20083;-86
2022/06/24 11:21:01;;;;;;;8.00;3.30;;;23.40;59.50;;;;;;4120617;28;20042;-88
2022/06/24 11:23:24;;;;;;;8.50;3.38;;;23.40;59.60;;;;;;4118483;28;20121;-89
2022/06/24 11:25:56;;;;;;;5.13;2.90;;;23.50;59.50;;;;;;4114370;28;20031;-87
2022/06/24 11:28:29;;;;;;;12.00;4.30;;;23.60;59.60;;;;;;4135818;28;20041;-90
2022/06/24 11:30:52;;;;;;;10.90;3.50;;;23.50;59.10;;;;;;4131759;28;20033;-88
2022/06/24 11:33:14;;;;;;;9.88;3.40;;;23.60;59.60;;;;;;4134246;28;20026;-87
2022/06/24 11:35:36;;;;;;;9.45;3.75;;;23.70;59.70;;;;;;4131013;28;20038;-87
2022/06/24 11:38:06;;;;;;;10.93;3.53;;;23.70;59.80;;;;;;4121491;28;20038;-87
2022/06/24 11:40:31;;;;;;;7.32;3.10;;;23.70;59.70;;;;;;4131349;28;20035;-87
2022/06/24 11:42:53;;;;;;;11.65;3.85;;;23.80;59.90;;;;;;4126797;28;20411;-89
2022/06/24 11:45:14;;;;;;;9.75;3.38;;;23.90;58.90;;;;;;4127813;28;20034;-90
2022/06/24 11:47:35;;;;;;;7.55;3.03;;;23.90;59.20;;;;;;4129985;28;20038;-88
2022/06/24 11:49:56;;;;;;;6.25;3.20;;;24.00;58.90;;;;;;4123307;28;20038;-86
2022/06/24 11:52:18;;;;;;;12.27;3.90;;;24.10;59.40;;;;;;4133458;28;20038;-86
2022/06/24 11:54:39;;;;;;;6.43;3.28;;;24.10;59.20;;;;;;4130579;28;20038;-91
2022/06/24 11:57:00;;;;;;;7.53;3.50;;;24.20;58.70;;;;;;4122677;28;20034;-90
2022/06/24 11:59:22;;;;;;;10.30;3.97;;;24.30;58.50;;;;;;4123069;28;20031;-89
2022/06/24 12:01:44;;;;;;;8.98;3.35;;;24.40;57.90;;;;;;4118829;28;20026;-88
2022/06/24 12:04:11;;;;;;;8.25;3.80;;;24.40;57.90;;;;;;4131788;28;20042;-88
2022/06/24 12:06:33;;;;;;;10.32;3.50;;;24.50;57.90;;;;;;4119136;28;20057;-88
2022/06/24 12:08:55;;;;;;;11.23;3.25;;;24.50;57.60;;;;;;4119697;28;20109;-89
2022/06/24 12:11:18;;;;;;;7.07;2.80;;;24.50;57.60;;;;;;4128987;28;20092;-88
2022/06/24 12:13:40;;;;;;;6.90;3.30;;;24.60;57.90;;;;;;4124439;28;20045;-89
2022/06/24 12:16:01;;;;;;;7.05;3.25;;;24.70;57.90;;;;;;4122837;28;20062;-86
2022/06/24 12:18:24;;;;;;;12.07;3.90;;;24.70;58.30;;;;;;4130391;28;20034;-87
2022/06/24 12:20:57;;;;;;;6.10;3.15;;;24.70;57.80;;;;;;4121379;28;20038;-87
2022/06/24 12:23:20;;;;;;;6.15;3.22;;;24.80;57.90;;;;;;4119484;28;20035;-89
2022/06/24 12:25:47;;;;;;;6.47;2.75;;;24.80;58.00;;;;;;4131633;28;20049;-89
2022/06/24 12:28:27;;;;;;;7.65;3.80;;;24.90;58.30;;;;;;4135619;28;20061;-88
2022/06/24 12:30:58;;;;;;;6.18;2.83;;;24.90;57.10;;;;;;4136536;28;20048;-87
2022/06/24 12:33:19;;;;;;;10.30;3.63;;;25.00;57.20;;;;;;4120527;28;20422;-89